sensor_id;sensor_type;location;lat;lon;timestamp;P1;durP1;ratioP1;P2;durP2;ratioP2
80653;SDS011;70020;45.524;10.240;2023-09-19T00:01:38;21.15;;;5.68;;
80653;SDS011;70020;45.524;10.240;2023-09-19T00:04:04;14.38;;;4.72;;
80653;SDS011;70020;45.524;10.240;2023-09-19T00:06:35;15.57;;;4.68;;
80653;SDS011;70020;45.524;10.240;2023-09-19T00:09:03;20.85;;;5.00;;
80653;SDS011;70020;45.524;10.240;2023-09-19T00:11:30;15.55;;;4.90;;
80653;SDS011;70020;45.524;10.240;2023-09-19T00:16:22;19.92;;;4.82;;
80653;SDS011;70020;45.524;10.240;2023-09-19T00:21:14;15.00;;;5.00;;
80653;SDS011;70020;45.524;10.240;2023-09-19T00:26:06;13.55;;;4.80;;
80653;SDS011;70020;45.524;10.240;2023-09-19T00:30:57;17.60;;;5.22;;
80653;SDS011;70020;45.524;10.240;2023-09-19T00:33:26;17.25;;;4.88;;
80653;SDS011;70020;45.524;10.240;2023-09-19T00:38:19;16.00;;;5.25;;
80653;SDS011;70020;45.524;10.240;2023-09-19T00:40:52;16.90;;;4.65;;
80653;SDS011;70020;45.524;10.240;2023-09-19T00:43:18;16.45;;;5.32;;
80653;SDS011;70020;45.524;10.240;2023-09-19T00:45:45;13.90;;;4.88;;
80653;SDS011;70020;45.524;10.240;2023-09-19T00:48:13;15.43;;;5.15;;
80653;SDS011;70020;45.524;10.240;2023-09-19T00:50:41;15.68;;;4.85;;
80653;SDS011;70020;45.524;10.240;2023-09-19T00:53:08;15.85;;;5.05;;
80653;SDS011;70020;45.524;10.240;2023-09-19T00:55:35;16.02;;;4.60;;
80653;SDS011;70020;45.524;10.240;2023-09-19T00:58:03;15.70;;;4.10;;
80653;SDS011;70020;45.524;10.240;2023-09-19T01:00:31;17.35;;;4.97;;
80653;SDS011;70020;45.524;10.240;2023-09-19T01:02:59;13.98;;;4.30;;
80653;SDS011;70020;45.524;10.240;2023-09-19T01:05:27;13.88;;;4.55;;
80653;SDS011;70020;45.524;10.240;2023-09-19T01:07:52;13.40;;;4.68;;
80653;SDS011;70020;45.524;10.240;2023-09-19T01:12:55;11.73;;;4.10;;
80653;SDS011;70020;45.524;10.240;2023-09-19T01:23:39;16.40;;;4.78;;
80653;SDS011;70020;45.524;10.240;2023-09-19T01:26:44;14.18;;;4.80;;
80653;SDS011;70020;45.524;10.240;2023-09-19T01:29:34;12.18;;;5.03;;
80653;SDS011;70020;45.524;10.240;2023-09-19T01:32:04;20.85;;;5.45;;
80653;SDS011;70020;45.524;10.240;2023-09-19T01:37:18;13.50;;;5.13;;
80653;SDS011;70020;45.524;10.240;2023-09-19T01:39:57;17.27;;;5.20;;
80653;SDS011;70020;45.524;10.240;2023-09-19T01:45:35;15.75;;;6.28;;
80653;SDS011;70020;45.524;10.240;2023-09-19T01:50:49;15.65;;;6.30;;
80653;SDS011;70020;45.524;10.240;2023-09-19T01:53:27;18.60;;;5.45;;
80653;SDS011;70020;45.524;10.240;2023-09-19T01:55:58;14.70;;;5.10;;
80653;SDS011;70020;45.524;10.240;2023-09-19T01:58:34;15.13;;;5.50;;
80653;SDS011;70020;45.524;10.240;2023-09-19T02:01:05;20.75;;;5.05;;
80653;SDS011;70020;45.524;10.240;2023-09-19T02:03:34;15.45;;;4.45;;
80653;SDS011;70020;45.524;10.240;2023-09-19T02:06:01;17.48;;;4.65;;
80653;SDS011;70020;45.524;10.240;2023-09-19T02:08:28;15.80;;;4.63;;
80653;SDS011;70020;45.524;10.240;2023-09-19T02:10:58;10.98;;;4.63;;
80653;SDS011;70020;45.524;10.240;2023-09-19T02:13:25;14.93;;;4.75;;
80653;SDS011;70020;45.524;10.240;2023-09-19T02:15:51;15.20;;;4.68;;
80653;SDS011;70020;45.524;10.240;2023-09-19T02:18:17;13.65;;;4.72;;
80653;SDS011;70020;45.524;10.240;2023-09-19T02:20:43;10.50;;;5.30;;
80653;SDS011;70020;45.524;10.240;2023-09-19T02:23:09;13.52;;;5.18;;
80653;SDS011;70020;45.524;10.240;2023-09-19T02:25:35;11.65;;;4.90;;
80653;SDS011;70020;45.524;10.240;2023-09-19T02:28:01;14.02;;;5.32;;
80653;SDS011;70020;45.524;10.240;2023-09-19T02:30:28;12.30;;;5.15;;
80653;SDS011;70020;45.524;10.240;2023-09-19T02:32:53;19.45;;;5.40;;
80653;SDS011;70020;45.524;10.240;2023-09-19T02:35:19;13.27;;;4.97;;
80653;SDS011;70020;45.524;10.240;2023-09-19T02:37:45;16.83;;;5.90;;
80653;SDS011;70020;45.524;10.240;2023-09-19T02:40:12;16.70;;;5.00;;
80653;SDS011;70020;45.524;10.240;2023-09-19T02:42:47;10.68;;;5.25;;
80653;SDS011;70020;45.524;10.240;2023-09-19T02:45:17;13.30;;;4.97;;
80653;SDS011;70020;45.524;10.240;2023-09-19T02:47:43;17.73;;;5.35;;
80653;SDS011;70020;45.524;10.240;2023-09-19T02:50:09;13.75;;;5.50;;
80653;SDS011;70020;45.524;10.240;2023-09-19T02:52:44;15.93;;;5.65;;
80653;SDS011;70020;45.524;10.240;2023-09-19T02:55:30;15.40;;;5.07;;
80653;SDS011;70020;45.524;10.240;2023-09-19T03:00:22;14.18;;;5.47;;
80653;SDS011;70020;45.524;10.240;2023-09-19T03:02:53;14.98;;;5.00;;
80653;SDS011;70020;45.524;10.240;2023-09-19T03:05:20;12.68;;;5.93;;
80653;SDS011;70020;45.524;10.240;2023-09-19T03:07:47;16.98;;;5.60;;
80653;SDS011;70020;45.524;10.240;2023-09-19T03:10:16;17.30;;;6.03;;
80653;SDS011;70020;45.524;10.240;2023-09-19T03:12:42;10.63;;;4.93;;
80653;SDS011;70020;45.524;10.240;2023-09-19T03:15:09;14.90;;;5.28;;
80653;SDS011;70020;45.524;10.240;2023-09-19T03:17:34;15.75;;;5.10;;
80653;SDS011;70020;45.524;10.240;2023-09-19T03:20:01;20.95;;;6.35;;
80653;SDS011;70020;45.524;10.240;2023-09-19T03:22:27;13.57;;;5.28;;
80653;SDS011;70020;45.524;10.240;2023-09-19T03:24:53;16.83;;;4.72;;
80653;SDS011;70020;45.524;10.240;2023-09-19T03:27:20;9.70;;;5.38;;
80653;SDS011;70020;45.524;10.240;2023-09-19T03:29:46;16.52;;;5.60;;
80653;SDS011;70020;45.524;10.240;2023-09-19T03:32:12;15.88;;;5.88;;
80653;SDS011;70020;45.524;10.240;2023-09-19T03:34:38;15.90;;;4.72;;
80653;SDS011;70020;45.524;10.240;2023-09-19T03:37:08;11.38;;;5.25;;
80653;SDS011;70020;45.524;10.240;2023-09-19T03:39:34;18.95;;;5.00;;
80653;SDS011;70020;45.524;10.240;2023-09-19T03:42:00;14.05;;;5.53;;
80653;SDS011;70020;45.524;10.240;2023-09-19T03:44:27;12.68;;;4.88;;
80653;SDS011;70020;45.524;10.240;2023-09-19T03:46:53;16.05;;;4.72;;
80653;SDS011;70020;45.524;10.240;2023-09-19T03:49:20;14.80;;;5.25;;
80653;SDS011;70020;45.524;10.240;2023-09-19T03:51:46;14.43;;;5.13;;
80653;SDS011;70020;45.524;10.240;2023-09-19T03:54:12;15.35;;;5.15;;
80653;SDS011;70020;45.524;10.240;2023-09-19T03:56:38;12.57;;;4.28;;
80653;SDS011;70020;45.524;10.240;2023-09-19T03:59:04;11.93;;;4.68;;
80653;SDS011;70020;45.524;10.240;2023-09-19T04:01:31;13.70;;;4.70;;
80653;SDS011;70020;45.524;10.240;2023-09-19T04:03:58;12.27;;;4.82;;
80653;SDS011;70020;45.524;10.240;2023-09-19T04:06:32;11.32;;;4.63;;
80653;SDS011;70020;45.524;10.240;2023-09-19T04:08:58;13.40;;;4.80;;
80653;SDS011;70020;45.524;10.240;2023-09-19T04:11:25;12.90;;;4.55;;
80653;SDS011;70020;45.524;10.240;2023-09-19T04:13:51;14.98;;;4.57;;
80653;SDS011;70020;45.524;10.240;2023-09-19T04:16:17;14.43;;;5.78;;
80653;SDS011;70020;45.524;10.240;2023-09-19T04:18:43;16.70;;;4.75;;
80653;SDS011;70020;45.524;10.240;2023-09-19T04:21:09;13.68;;;4.85;;
80653;SDS011;70020;45.524;10.240;2023-09-19T04:23:35;14.02;;;5.50;;
80653;SDS011;70020;45.524;10.240;2023-09-19T04:26:01;11.20;;;4.25;;
80653;SDS011;70020;45.524;10.240;2023-09-19T04:28:28;12.10;;;5.22;;
80653;SDS011;70020;45.524;10.240;2023-09-19T04:30:54;21.77;;;5.13;;
80653;SDS011;70020;45.524;10.240;2023-09-19T04:33:20;18.13;;;5.07;;
80653;SDS011;70020;45.524;10.240;2023-09-19T04:35:48;15.98;;;5.30;;
80653;SDS011;70020;45.524;10.240;2023-09-19T04:38:14;18.27;;;5.25;;
80653;SDS011;70020;45.524;10.240;2023-09-19T04:40:40;15.98;;;5.47;;
80653;SDS011;70020;45.524;10.240;2023-09-19T04:43:06;18.25;;;5.40;;
80653;SDS011;70020;45.524;10.240;2023-09-19T04:45:32;15.25;;;4.90;;
80653;SDS011;70020;45.524;10.240;2023-09-19T04:47:58;13.63;;;5.25;;
80653;SDS011;70020;45.524;10.240;2023-09-19T04:52:53;14.10;;;5.90;;
80653;SDS011;70020;45.524;10.240;2023-09-19T04:55:18;15.48;;;4.97;;
80653;SDS011;70020;45.524;10.240;2023-09-19T05:00:18;14.98;;;5.68;;
80653;SDS011;70020;45.524;10.240;2023-09-19T05:02:45;16.05;;;5.85;;
80653;SDS011;70020;45.524;10.240;2023-09-19T05:05:11;14.18;;;6.90;;
80653;SDS011;70020;45.524;10.240;2023-09-19T05:07:39;20.45;;;7.47;;
80653;SDS011;70020;45.524;10.240;2023-09-19T05:10:06;17.30;;;6.30;;
80653;SDS011;70020;45.524;10.240;2023-09-19T05:12:33;18.15;;;7.43;;
80653;SDS011;70020;45.524;10.240;2023-09-19T05:14:59;14.93;;;6.35;;
80653;SDS011;70020;45.524;10.240;2023-09-19T05:17:26;16.30;;;6.90;;
80653;SDS011;70020;45.524;10.240;2023-09-19T05:19:52;17.67;;;7.03;;
80653;SDS011;70020;45.524;10.240;2023-09-19T05:22:18;19.27;;;6.10;;
80653;SDS011;70020;45.524;10.240;2023-09-19T05:24:44;15.30;;;5.68;;
80653;SDS011;70020;45.524;10.240;2023-09-19T05:27:13;15.45;;;6.15;;
80653;SDS011;70020;45.524;10.240;2023-09-19T05:29:41;14.07;;;5.70;;
80653;SDS011;70020;45.524;10.240;2023-09-19T05:32:08;17.92;;;5.72;;
80653;SDS011;70020;45.524;10.240;2023-09-19T05:34:35;17.33;;;5.60;;
80653;SDS011;70020;45.524;10.240;2023-09-19T05:37:02;18.20;;;5.72;;
80653;SDS011;70020;45.524;10.240;2023-09-19T05:41:53;18.45;;;6.10;;
80653;SDS011;70020;45.524;10.240;2023-09-19T05:44:22;17.67;;;5.82;;
80653;SDS011;70020;45.524;10.240;2023-09-19T05:46:48;14.88;;;5.30;;
80653;SDS011;70020;45.524;10.240;2023-09-19T05:49:14;16.83;;;6.05;;
80653;SDS011;70020;45.524;10.240;2023-09-19T05:51:41;14.95;;;6.53;;
80653;SDS011;70020;45.524;10.240;2023-09-19T05:54:07;15.00;;;6.28;;
80653;SDS011;70020;45.524;10.240;2023-09-19T05:56:33;18.05;;;5.75;;
80653;SDS011;70020;45.524;10.240;2023-09-19T05:59:00;18.92;;;6.22;;
80653;SDS011;70020;45.524;10.240;2023-09-19T06:01:26;17.48;;;6.35;;
80653;SDS011;70020;45.524;10.240;2023-09-19T06:03:52;18.02;;;5.82;;
80653;SDS011;70020;45.524;10.240;2023-09-19T06:06:19;15.43;;;7.15;;
80653;SDS011;70020;45.524;10.240;2023-09-19T06:08:44;12.93;;;6.30;;
80653;SDS011;70020;45.524;10.240;2023-09-19T06:11:10;19.20;;;7.38;;
80653;SDS011;70020;45.524;10.240;2023-09-19T06:13:37;18.05;;;6.82;;
80653;SDS011;70020;45.524;10.240;2023-09-19T06:16:04;21.48;;;7.18;;
80653;SDS011;70020;45.524;10.240;2023-09-19T06:18:31;16.42;;;6.70;;
80653;SDS011;70020;45.524;10.240;2023-09-19T06:20:58;21.30;;;7.07;;
80653;SDS011;70020;45.524;10.240;2023-09-19T06:23:24;16.58;;;7.40;;
80653;SDS011;70020;45.524;10.240;2023-09-19T06:25:51;20.50;;;7.10;;
80653;SDS011;70020;45.524;10.240;2023-09-19T06:28:18;20.77;;;6.53;;
80653;SDS011;70020;45.524;10.240;2023-09-19T06:30:48;16.50;;;7.55;;
80653;SDS011;70020;45.524;10.240;2023-09-19T06:33:15;21.80;;;6.70;;
80653;SDS011;70020;45.524;10.240;2023-09-19T06:35:40;16.02;;;6.60;;
80653;SDS011;70020;45.524;10.240;2023-09-19T06:38:07;21.70;;;7.32;;
80653;SDS011;70020;45.524;10.240;2023-09-19T06:43:02;17.05;;;6.63;;
80653;SDS011;70020;45.524;10.240;2023-09-19T06:45:29;21.52;;;6.97;;
80653;SDS011;70020;45.524;10.240;2023-09-19T06:47:56;19.45;;;7.13;;
80653;SDS011;70020;45.524;10.240;2023-09-19T06:50:22;19.90;;;6.60;;
80653;SDS011;70020;45.524;10.240;2023-09-19T06:52:49;15.48;;;6.63;;
80653;SDS011;70020;45.524;10.240;2023-09-19T06:55:20;18.48;;;6.90;;
80653;SDS011;70020;45.524;10.240;2023-09-19T06:57:48;19.10;;;6.80;;
80653;SDS011;70020;45.524;10.240;2023-09-19T07:00:14;18.27;;;6.18;;
80653;SDS011;70020;45.524;10.240;2023-09-19T07:05:25;17.65;;;6.20;;
80653;SDS011;70020;45.524;10.240;2023-09-19T07:07:54;16.42;;;5.88;;
80653;SDS011;70020;45.524;10.240;2023-09-19T07:10:21;21.50;;;6.50;;
80653;SDS011;70020;45.524;10.240;2023-09-19T07:12:58;14.88;;;5.95;;
80653;SDS011;70020;45.524;10.240;2023-09-19T07:15:25;17.08;;;5.90;;
80653;SDS011;70020;45.524;10.240;2023-09-19T07:17:51;15.18;;;5.55;;
80653;SDS011;70020;45.524;10.240;2023-09-19T07:20:21;18.80;;;5.65;;
80653;SDS011;70020;45.524;10.240;2023-09-19T07:22:48;20.20;;;6.00;;
80653;SDS011;70020;45.524;10.240;2023-09-19T07:25:15;14.35;;;5.22;;
80653;SDS011;70020;45.524;10.240;2023-09-19T07:27:41;13.95;;;5.55;;
80653;SDS011;70020;45.524;10.240;2023-09-19T07:30:08;14.95;;;5.35;;
80653;SDS011;70020;45.524;10.240;2023-09-19T07:32:34;18.55;;;5.47;;
80653;SDS011;70020;45.524;10.240;2023-09-19T07:35:03;14.82;;;5.10;;
80653;SDS011;70020;45.524;10.240;2023-09-19T07:37:31;13.95;;;4.57;;
80653;SDS011;70020;45.524;10.240;2023-09-19T07:39:58;15.70;;;5.07;;
80653;SDS011;70020;45.524;10.240;2023-09-19T07:42:28;18.77;;;5.03;;
80653;SDS011;70020;45.524;10.240;2023-09-19T07:44:54;13.20;;;4.43;;
80653;SDS011;70020;45.524;10.240;2023-09-19T07:47:20;12.90;;;4.03;;
80653;SDS011;70020;45.524;10.240;2023-09-19T07:52:14;16.63;;;4.55;;
80653;SDS011;70020;45.524;10.240;2023-09-19T07:54:40;12.10;;;4.43;;
80653;SDS011;70020;45.524;10.240;2023-09-19T07:57:06;13.85;;;5.13;;
80653;SDS011;70020;45.524;10.240;2023-09-19T08:01:57;18.50;;;5.33;;
80653;SDS011;70020;45.524;10.240;2023-09-19T08:06:51;13.45;;;4.90;;
80653;SDS011;70020;45.524;10.240;2023-09-19T08:09:17;17.98;;;4.63;;
80653;SDS011;70020;45.524;10.240;2023-09-19T08:11:46;14.02;;;4.90;;
80653;SDS011;70020;45.524;10.240;2023-09-19T08:14:12;13.85;;;4.50;;
80653;SDS011;70020;45.524;10.240;2023-09-19T08:16:39;15.40;;;5.18;;
80653;SDS011;70020;45.524;10.240;2023-09-19T08:21:31;13.32;;;4.85;;
80653;SDS011;70020;45.524;10.240;2023-09-19T08:26:22;13.13;;;4.68;;
80653;SDS011;70020;45.524;10.240;2023-09-19T08:28:49;15.10;;;5.82;;
80653;SDS011;70020;45.524;10.240;2023-09-19T08:31:16;14.40;;;4.97;;
80653;SDS011;70020;45.524;10.240;2023-09-19T08:33:42;18.70;;;5.55;;
80653;SDS011;70020;45.524;10.240;2023-09-19T08:36:10;14.82;;;5.75;;
80653;SDS011;70020;45.524;10.240;2023-09-19T08:38:39;16.35;;;5.35;;
80653;SDS011;70020;45.524;10.240;2023-09-19T08:43:31;17.50;;;5.00;;
80653;SDS011;70020;45.524;10.240;2023-09-19T08:46:09;15.48;;;5.80;;
80653;SDS011;70020;45.524;10.240;2023-09-19T08:48:39;16.55;;;7.82;;
80653;SDS011;70020;45.524;10.240;2023-09-19T08:51:16;15.05;;;8.43;;
80653;SDS011;70020;45.524;10.240;2023-09-19T08:56:28;16.30;;;6.95;;
80653;SDS011;70020;45.524;10.240;2023-09-19T08:58:59;14.20;;;5.32;;
80653;SDS011;70020;45.524;10.240;2023-09-19T09:01:29;18.90;;;5.85;;
80653;SDS011;70020;45.524;10.240;2023-09-19T09:03:57;15.20;;;6.07;;
80653;SDS011;70020;45.524;10.240;2023-09-19T09:06:25;15.30;;;6.43;;
80653;SDS011;70020;45.524;10.240;2023-09-19T09:08:53;14.98;;;6.68;;
80653;SDS011;70020;45.524;10.240;2023-09-19T09:11:20;15.50;;;5.57;;
80653;SDS011;70020;45.524;10.240;2023-09-19T09:13:47;14.73;;;5.47;;
80653;SDS011;70020;45.524;10.240;2023-09-19T09:16:13;12.82;;;5.47;;
80653;SDS011;70020;45.524;10.240;2023-09-19T09:18:43;20.38;;;7.03;;
80653;SDS011;70020;45.524;10.240;2023-09-19T09:23:35;14.15;;;4.82;;
80653;SDS011;70020;45.524;10.240;2023-09-19T09:28:31;15.38;;;5.10;;
80653;SDS011;70020;45.524;10.240;2023-09-19T09:30:59;18.45;;;6.03;;
80653;SDS011;70020;45.524;10.240;2023-09-19T09:33:27;18.60;;;5.93;;
80653;SDS011;70020;45.524;10.240;2023-09-19T09:35:55;14.65;;;4.95;;
80653;SDS011;70020;45.524;10.240;2023-09-19T09:38:25;16.85;;;5.18;;
80653;SDS011;70020;45.524;10.240;2023-09-19T09:40:54;20.90;;;6.78;;
80653;SDS011;70020;45.524;10.240;2023-09-19T09:46:07;14.93;;;5.28;;
80653;SDS011;70020;45.524;10.240;2023-09-19T09:49:02;15.48;;;5.20;;
80653;SDS011;70020;45.524;10.240;2023-09-19T09:52:07;14.18;;;5.38;;
80653;SDS011;70020;45.524;10.240;2023-09-19T09:55:04;12.93;;;5.07;;
80653;SDS011;70020;45.524;10.240;2023-09-19T09:57:33;16.52;;;4.78;;
80653;SDS011;70020;45.524;10.240;2023-09-19T10:02:36;22.25;;;5.53;;
80653;SDS011;70020;45.524;10.240;2023-09-19T10:07:52;14.23;;;5.60;;
80653;SDS011;70020;45.524;10.240;2023-09-19T10:10:35;17.20;;;6.05;;
80653;SDS011;70020;45.524;10.240;2023-09-19T10:13:11;14.40;;;5.10;;
80653;SDS011;70020;45.524;10.240;2023-09-19T10:15:38;16.70;;;5.80;;
80653;SDS011;70020;45.524;10.240;2023-09-19T10:18:16;15.95;;;6.05;;
80653;SDS011;70020;45.524;10.240;2023-09-19T10:20:46;14.07;;;6.90;;
80653;SDS011;70020;45.524;10.240;2023-09-19T10:23:17;19.10;;;7.45;;
80653;SDS011;70020;45.524;10.240;2023-09-19T10:25:48;14.65;;;6.15;;
80653;SDS011;70020;45.524;10.240;2023-09-19T10:28:16;19.63;;;7.07;;
80653;SDS011;70020;45.524;10.240;2023-09-19T10:30:46;15.77;;;7.00;;
80653;SDS011;70020;45.524;10.240;2023-09-19T10:33:15;23.58;;;7.68;;
80653;SDS011;70020;45.524;10.240;2023-09-19T10:35:43;16.60;;;6.47;;
80653;SDS011;70020;45.524;10.240;2023-09-19T10:38:10;17.73;;;6.63;;
80653;SDS011;70020;45.524;10.240;2023-09-19T10:40:38;14.57;;;6.25;;
80653;SDS011;70020;45.524;10.240;2023-09-19T10:43:17;18.85;;;6.35;;
80653;SDS011;70020;45.524;10.240;2023-09-19T10:45:44;19.42;;;6.80;;
80653;SDS011;70020;45.524;10.240;2023-09-19T10:48:14;21.85;;;6.38;;
80653;SDS011;70020;45.524;10.240;2023-09-19T10:50:44;17.75;;;7.88;;
80653;SDS011;70020;45.524;10.240;2023-09-19T10:53:15;15.48;;;6.88;;
80653;SDS011;70020;45.524;10.240;2023-09-19T10:55:48;14.93;;;6.38;;
80653;SDS011;70020;45.524;10.240;2023-09-19T11:00:54;19.95;;;6.30;;
80653;SDS011;70020;45.524;10.240;2023-09-19T11:03:21;17.27;;;6.30;;
80653;SDS011;70020;45.524;10.240;2023-09-19T11:11:42;17.42;;;6.45;;
80653;SDS011;70020;45.524;10.240;2023-09-19T11:30:47;16.85;;;6.43;;
80653;SDS011;70020;45.524;10.240;2023-09-19T11:36:04;16.95;;;5.45;;
80653;SDS011;70020;45.524;10.240;2023-09-19T11:43:50;17.73;;;6.13;;
80653;SDS011;70020;45.524;10.240;2023-09-19T11:46:26;13.73;;;5.82;;
80653;SDS011;70020;45.524;10.240;2023-09-19T11:48:53;12.70;;;5.65;;
80653;SDS011;70020;45.524;10.240;2023-09-19T11:51:23;14.23;;;6.05;;
80653;SDS011;70020;45.524;10.240;2023-09-19T11:54:01;14.93;;;4.60;;
80653;SDS011;70020;45.524;10.240;2023-09-19T11:58:55;13.90;;;4.83;;
80653;SDS011;70020;45.524;10.240;2023-09-19T12:01:31;13.25;;;5.72;;
80653;SDS011;70020;45.524;10.240;2023-09-19T12:03:58;14.43;;;5.63;;
80653;SDS011;70020;45.524;10.240;2023-09-19T12:06:27;23.10;;;7.40;;
80653;SDS011;70020;45.524;10.240;2023-09-19T12:08:54;15.43;;;5.85;;
80653;SDS011;70020;45.524;10.240;2023-09-19T12:11:22;14.48;;;5.60;;
80653;SDS011;70020;45.524;10.240;2023-09-19T12:13:48;12.85;;;5.97;;
80653;SDS011;70020;45.524;10.240;2023-09-19T12:16:14;16.88;;;6.30;;
80653;SDS011;70020;45.524;10.240;2023-09-19T12:18:41;14.98;;;5.05;;
80653;SDS011;70020;45.524;10.240;2023-09-19T12:21:21;15.15;;;5.80;;
80653;SDS011;70020;45.524;10.240;2023-09-19T12:23:57;14.00;;;5.30;;
80653;SDS011;70020;45.524;10.240;2023-09-19T12:26:40;14.68;;;5.28;;
80653;SDS011;70020;45.524;10.240;2023-09-19T12:29:15;13.70;;;5.85;;
80653;SDS011;70020;45.524;10.240;2023-09-19T12:32:17;18.07;;;4.87;;
80653;SDS011;70020;45.524;10.240;2023-09-19T12:34:36;15.20;;;4.38;;
80653;SDS011;70020;45.524;10.240;2023-09-19T12:39:41;10.32;;;3.88;;
80653;SDS011;70020;45.524;10.240;2023-09-19T12:42:08;11.80;;;4.60;;
80653;SDS011;70020;45.524;10.240;2023-09-19T12:44:38;15.18;;;5.57;;
80653;SDS011;70020;45.524;10.240;2023-09-19T12:47:15;13.18;;;4.88;;
80653;SDS011;70020;45.524;10.240;2023-09-19T12:52:44;11.30;;;5.43;;
80653;SDS011;70020;45.524;10.240;2023-09-19T12:55:31;16.02;;;5.32;;
80653;SDS011;70020;45.524;10.240;2023-09-19T12:58:14;11.90;;;5.07;;
80653;SDS011;70020;45.524;10.240;2023-09-19T13:00:45;10.45;;;4.43;;
80653;SDS011;70020;45.524;10.240;2023-09-19T13:03:12;8.38;;;4.10;;
80653;SDS011;70020;45.524;10.240;2023-09-19T13:05:47;22.90;;;5.13;;
80653;SDS011;70020;45.524;10.240;2023-09-19T13:08:18;10.35;;;3.72;;
80653;SDS011;70020;45.524;10.240;2023-09-19T13:16:19;10.40;;;4.53;;
80653;SDS011;70020;45.524;10.240;2023-09-19T13:18:49;13.32;;;4.65;;
80653;SDS011;70020;45.524;10.240;2023-09-19T13:21:16;15.48;;;6.47;;
80653;SDS011;70020;45.524;10.240;2023-09-19T13:23:52;10.60;;;4.95;;
80653;SDS011;70020;45.524;10.240;2023-09-19T13:26:26;14.35;;;6.53;;
80653;SDS011;70020;45.524;10.240;2023-09-19T13:28:53;17.58;;;5.88;;
80653;SDS011;70020;45.524;10.240;2023-09-19T13:31:19;11.00;;;6.15;;
80653;SDS011;70020;45.524;10.240;2023-09-19T13:33:45;20.05;;;7.60;;
80653;SDS011;70020;45.524;10.240;2023-09-19T13:36:13;12.63;;;6.35;;
80653;SDS011;70020;45.524;10.240;2023-09-19T13:38:40;14.73;;;6.32;;
80653;SDS011;70020;45.524;10.240;2023-09-19T13:41:13;16.17;;;5.93;;
80653;SDS011;70020;45.524;10.240;2023-09-19T13:43:38;14.90;;;5.32;;
80653;SDS011;70020;45.524;10.240;2023-09-19T13:46:04;10.55;;;5.35;;
80653;SDS011;70020;45.524;10.240;2023-09-19T13:48:32;12.52;;;6.28;;
80653;SDS011;70020;45.524;10.240;2023-09-19T13:51:01;12.77;;;7.75;;
80653;SDS011;70020;45.524;10.240;2023-09-19T13:53:28;16.63;;;8.88;;
80653;SDS011;70020;45.524;10.240;2023-09-19T13:55:54;13.90;;;7.88;;
80653;SDS011;70020;45.524;10.240;2023-09-19T13:58:26;14.57;;;9.25;;
80653;SDS011;70020;45.524;10.240;2023-09-19T14:00:52;13.73;;;8.27;;
80653;SDS011;70020;45.524;10.240;2023-09-19T14:03:20;11.95;;;6.25;;
80653;SDS011;70020;45.524;10.240;2023-09-19T14:05:47;15.93;;;8.55;;
80653;SDS011;70020;45.524;10.240;2023-09-19T14:08:12;18.15;;;7.07;;
80653;SDS011;70020;45.524;10.240;2023-09-19T14:10:39;12.70;;;6.28;;
80653;SDS011;70020;45.524;10.240;2023-09-19T14:13:05;14.52;;;8.18;;
80653;SDS011;70020;45.524;10.240;2023-09-19T14:15:31;15.50;;;6.80;;
80653;SDS011;70020;45.524;10.240;2023-09-19T14:17:57;13.93;;;8.23;;
80653;SDS011;70020;45.524;10.240;2023-09-19T14:20:24;14.50;;;7.45;;
80653;SDS011;70020;45.524;10.240;2023-09-19T14:22:51;12.45;;;5.60;;
80653;SDS011;70020;45.524;10.240;2023-09-19T14:25:17;13.95;;;7.00;;
80653;SDS011;70020;45.524;10.240;2023-09-19T14:27:43;11.98;;;6.05;;
80653;SDS011;70020;45.524;10.240;2023-09-19T14:30:09;15.00;;;6.68;;
80653;SDS011;70020;45.524;10.240;2023-09-19T14:32:35;10.23;;;5.47;;
80653;SDS011;70020;45.524;10.240;2023-09-19T14:35:02;18.63;;;7.55;;
80653;SDS011;70020;45.524;10.240;2023-09-19T14:37:28;17.98;;;6.40;;
80653;SDS011;70020;45.524;10.240;2023-09-19T14:39:54;14.85;;;8.52;;
80653;SDS011;70020;45.524;10.240;2023-09-19T14:42:20;16.52;;;6.90;;
80653;SDS011;70020;45.524;10.240;2023-09-19T14:44:46;15.02;;;6.10;;
80653;SDS011;70020;45.524;10.240;2023-09-19T14:47:13;9.77;;;5.60;;
80653;SDS011;70020;45.524;10.240;2023-09-19T14:49:39;15.02;;;5.00;;
80653;SDS011;70020;45.524;10.240;2023-09-19T14:52:07;13.02;;;5.35;;
80653;SDS011;70020;45.524;10.240;2023-09-19T14:54:34;11.65;;;5.57;;
80653;SDS011;70020;45.524;10.240;2023-09-19T14:57:00;12.15;;;4.38;;
80653;SDS011;70020;45.524;10.240;2023-09-19T14:59:33;14.90;;;5.50;;
80653;SDS011;70020;45.524;10.240;2023-09-19T15:02:02;12.70;;;5.00;;
80653;SDS011;70020;45.524;10.240;2023-09-19T15:04:28;17.77;;;5.95;;
80653;SDS011;70020;45.524;10.240;2023-09-19T15:06:55;12.10;;;5.25;;
80653;SDS011;70020;45.524;10.240;2023-09-19T15:09:23;12.73;;;4.97;;
80653;SDS011;70020;45.524;10.240;2023-09-19T15:11:51;9.18;;;4.88;;
80653;SDS011;70020;45.524;10.240;2023-09-19T15:14:17;14.07;;;4.53;;
80653;SDS011;70020;45.524;10.240;2023-09-19T15:16:46;13.70;;;4.65;;
80653;SDS011;70020;45.524;10.240;2023-09-19T15:19:13;11.25;;;4.35;;
80653;SDS011;70020;45.524;10.240;2023-09-19T15:21:39;10.52;;;5.18;;
80653;SDS011;70020;45.524;10.240;2023-09-19T15:24:05;11.77;;;4.72;;
80653;SDS011;70020;45.524;10.240;2023-09-19T15:26:34;12.00;;;5.55;;
80653;SDS011;70020;45.524;10.240;2023-09-19T15:29:04;12.23;;;4.70;;
80653;SDS011;70020;45.524;10.240;2023-09-19T15:31:30;13.18;;;4.88;;
80653;SDS011;70020;45.524;10.240;2023-09-19T15:33:55;10.45;;;4.07;;
80653;SDS011;70020;45.524;10.240;2023-09-19T15:36:22;8.38;;;4.45;;
80653;SDS011;70020;45.524;10.240;2023-09-19T15:39:04;7.72;;;3.78;;
80653;SDS011;70020;45.524;10.240;2023-09-19T15:41:37;12.23;;;3.70;;
80653;SDS011;70020;45.524;10.240;2023-09-19T15:44:04;15.23;;;4.80;;
80653;SDS011;70020;45.524;10.240;2023-09-19T15:46:37;12.05;;;4.40;;
80653;SDS011;70020;45.524;10.240;2023-09-19T15:49:03;9.90;;;3.60;;
80653;SDS011;70020;45.524;10.240;2023-09-19T15:51:28;10.43;;;5.38;;
80653;SDS011;70020;45.524;10.240;2023-09-19T15:53:55;7.97;;;4.15;;
80653;SDS011;70020;45.524;10.240;2023-09-19T15:56:22;9.85;;;3.85;;
80653;SDS011;70020;45.524;10.240;2023-09-19T15:58:52;9.25;;;3.60;;
80653;SDS011;70020;45.524;10.240;2023-09-19T16:01:22;10.13;;;3.58;;
80653;SDS011;70020;45.524;10.240;2023-09-19T16:03:51;11.95;;;3.72;;
80653;SDS011;70020;45.524;10.240;2023-09-19T16:06:20;14.93;;;4.93;;
80653;SDS011;70020;45.524;10.240;2023-09-19T16:08:52;9.88;;;4.32;;
80653;SDS011;70020;45.524;10.240;2023-09-19T16:11:21;12.10;;;4.32;;
80653;SDS011;70020;45.524;10.240;2023-09-19T16:13:47;10.05;;;4.28;;
80653;SDS011;70020;45.524;10.240;2023-09-19T16:16:14;10.80;;;3.83;;
80653;SDS011;70020;45.524;10.240;2023-09-19T16:18:54;7.40;;;4.30;;
80653;SDS011;70020;45.524;10.240;2023-09-19T16:21:26;8.82;;;4.25;;
80653;SDS011;70020;45.524;10.240;2023-09-19T16:23:53;9.38;;;4.10;;
80653;SDS011;70020;45.524;10.240;2023-09-19T16:26:20;12.90;;;3.70;;
80653;SDS011;70020;45.524;10.240;2023-09-19T16:28:47;8.93;;;3.85;;
80653;SDS011;70020;45.524;10.240;2023-09-19T16:31:15;7.97;;;3.50;;
80653;SDS011;70020;45.524;10.240;2023-09-19T16:33:42;12.02;;;5.22;;